createdAt,value
2022-08-29T00:01:54.728Z,15.37833
2022-08-29T00:06:56.701Z,15.26655
2022-08-29T00:11:57.652Z,15.18514
2022-08-29T00:16:58.596Z,15.05268
2022-08-29T00:21:59.609Z,14.93929
2022-08-29T00:27:00.528Z,15.12085
2022-08-29T00:32:01.532Z,14.96094
2022-08-29T00:37:02.497Z,14.82719
2022-08-29T00:42:04.555Z,14.78067
2022-08-29T00:47:05.467Z,14.74158
2022-08-29T00:52:06.424Z,14.65662
2022-08-29T00:57:07.365Z,14.57585
2022-08-29T01:02:08.386Z,14.5387
2022-08-29T01:07:09.515Z,14.58393
2022-08-29T01:12:10.458Z,14.54322
2022-08-29T01:17:11.404Z,14.49283
2022-08-29T01:22:12.331Z,14.49994
2022-08-29T01:27:13.233Z,14.43985
2022-08-29T01:32:14.209Z,14.40528
2022-08-29T01:37:15.235Z,14.26378
2022-08-29T01:42:16.206Z,14.1617
2022-08-29T01:47:17.119Z,14.18173
2022-08-29T01:52:19.446Z,14.13521
2022-08-29T01:57:20.404Z,13.91198
2022-08-29T02:02:21.728Z,13.78696
2022-08-29T02:07:22.857Z,13.73301
2022-08-29T02:12:23.813Z,13.73171
2022-08-29T02:17:24.894Z,13.6503
2022-08-29T02:22:25.840Z,13.58892
2022-08-29T02:27:26.732Z,13.52528
2022-08-29T02:32:27.757Z,13.55016
2022-08-29T02:37:28.728Z,13.52108
2022-08-29T02:42:29.721Z,13.50816
2022-08-29T02:47:30.712Z,13.50429
2022-08-29T02:52:35.378Z,13.59668
2022-08-29T02:57:38.147Z,13.65741
2022-08-29T03:02:39.099Z,13.80634
2022-08-29T03:07:39.984Z,13.57568
2022-08-29T03:12:40.985Z,13.84478
2022-08-29T03:17:41.939Z,14.13359
2022-08-29T03:22:42.859Z,14.13779
2022-08-29T03:27:43.798Z,14.14651
2022-08-29T03:32:44.692Z,13.82701
2022-08-29T03:37:45.608Z,13.57826
2022-08-29T03:42:46.531Z,13.43031
2022-08-29T03:47:47.443Z,13.33113
2022-08-29T03:52:48.367Z,13.3279
2022-08-29T03:57:49.264Z,13.31498
2022-08-29T04:02:50.231Z,13.29592
2022-08-29T04:07:51.328Z,13.30852
2022-08-29T04:12:54.695Z,13.15054
2022-08-29T04:17:56.233Z,13.1037
2022-08-29T04:22:57.469Z,13.06946
2022-08-29T04:27:58.420Z,13.03554
2022-08-29T04:32:59.359Z,12.94185
2022-08-29T04:38:00.265Z,12.96511
2022-08-29T04:43:01.342Z,12.97384
2022-08-29T04:48:03.761Z,12.92667
2022-08-29T04:53:04.816Z,12.93216
2022-08-29T04:58:05.752Z,13.08884
2022-08-29T05:03:08.064Z,13.16121
2022-08-29T05:08:09.118Z,13.05686
2022-08-29T05:13:10.279Z,12.97319
2022-08-29T05:18:11.235Z,13.19254
2022-08-29T05:23:12.166Z,13.2494
2022-08-29T05:28:16.794Z,13.41609
2022-08-29T05:33:17.725Z,13.53724
2022-08-29T05:38:18.763Z,13.59668
2022-08-29T05:43:19.833Z,13.6726
2022-08-29T05:48:20.783Z,13.92296
2022-08-29T05:53:21.692Z,13.93976
2022-08-29T05:58:22.613Z,13.94687
2022-08-29T06:03:23.610Z,14.05251
2022-08-29T06:08:24.560Z,14.19174
2022-08-29T06:13:25.601Z,14.27735
2022-08-29T06:18:34.531Z,14.26088
2022-08-29T06:23:37.199Z,14.23148
2022-08-29T06:28:38.121Z,14.31127
2022-08-29T06:33:39.048Z,14.30061
2022-08-29T06:38:40.005Z,14.51512
2022-08-29T06:43:40.990Z,14.77292
2022-08-29T06:48:41.902Z,14.93541
2022-08-29T06:53:43.052Z,15.00196
2022-08-29T06:58:44.202Z,14.99486
2022-08-29T07:03:45.097Z,15.02329
2022-08-29T07:08:56.037Z,15.09565
2022-08-29T07:13:57.714Z,15.06787
2022-08-29T07:18:58.612Z,15.17771
2022-08-29T07:23:59.552Z,15.24943
2022-08-29T07:29:00.679Z,15.23424
2022-08-29T07:34:04.480Z,15.43034
2022-08-29T07:39:05.511Z,15.55536
2022-08-29T07:44:06.527Z,15.54082
2022-08-29T07:49:07.483Z,15.60124
2022-08-29T07:54:08.399Z,15.58024
2022-08-29T07:59:11.486Z,15.63354
2022-08-29T08:04:12.462Z,15.6497
2022-08-29T08:09:14.702Z,15.82092
2022-08-29T08:14:15.651Z,15.91396
2022-08-29T08:19:17.835Z,15.94723
2022-08-29T08:24:19.565Z,16.08066
2022-08-29T08:29:20.967Z,16.24768
2022-08-29T08:34:21.876Z,16.33297
2022-08-29T08:39:22.856Z,16.38046
2022-08-29T08:44:23.961Z,16.6108
2022-08-29T08:49:24.887Z,16.63277
2022-08-29T08:54:25.824Z,16.56945
2022-08-29T08:59:26.732Z,16.47512
2022-08-29T09:04:27.633Z,16.55653
2022-08-29T09:09:28.561Z,16.52099
2022-08-29T09:14:29.513Z,16.71935
2022-08-29T09:19:30.426Z,16.8279
2022-08-29T09:24:31.360Z,17.045
2022-08-29T09:29:32.312Z,17.09927
2022-08-29T09:34:50.563Z,17.23367
2022-08-29T09:40:05.836Z,17.51861
2022-08-29T09:45:06.851Z,17.74314
2022-08-29T09:50:07.830Z,17.96121
2022-08-29T09:55:08.805Z,18.25553
2022-08-29T10:00:09.727Z,19.04123
2022-08-29T10:05:13.102Z,19.11489
2022-08-29T10:10:14.434Z,18.93107
2022-08-29T10:15:28.178Z,18.83156
2022-08-29T10:20:47.915Z,18.65549
2022-08-29T10:25:48.868Z,18.56535
2022-08-29T10:30:49.827Z,18.51495
2022-08-29T10:35:54.437Z,18.6025
2022-08-29T10:40:56.030Z,18.70492
2022-08-29T10:45:57.725Z,18.79828
2022-08-29T10:50:58.756Z,19.03703
2022-08-29T10:56:04.511Z,19.22571
2022-08-29T11:01:09.409Z,19.32812
2022-08-29T11:06:10.630Z,19.41212
2022-08-29T11:11:11.643Z,19.64409
2022-08-29T11:16:12.665Z,19.94939
2022-08-29T11:21:13.767Z,20.11157
2022-08-29T11:26:17.015Z,20.1106
2022-08-29T11:31:18.259Z,20.24694
2022-08-29T11:36:19.191Z,20.23596
2022-08-29T11:41:28.301Z,20.15164
2022-08-29T11:46:29.841Z,20.13548
2022-08-29T11:51:30.779Z,20.18103
2022-08-29T11:56:31.687Z,20.20462
2022-08-29T12:01:32.759Z,20.73382
2022-08-29T12:06:33.691Z,21.06853
2022-08-29T12:11:34.596Z,21.37125
2022-08-29T12:16:35.694Z,21.5441
2022-08-29T12:21:36.634Z,21.4307
2022-08-29T12:26:37.537Z,21.50888
2022-08-29T12:31:38.561Z,21.64748
2022-08-29T12:36:40.087Z,21.58513
2022-08-29T12:41:53.303Z,21.53667
2022-08-29T12:46:54.351Z,21.62875
2022-08-29T12:51:55.377Z,21.60419
2022-08-29T12:56:56.293Z,21.93761
2022-08-29T13:01:57.685Z,22.04067
2022-08-29T13:06:58.612Z,22.23646
2022-08-29T13:11:59.619Z,22.41383
2022-08-29T13:17:00.570Z,22.5253
2022-08-29T13:22:01.537Z,22.96211
2022-08-29T13:27:05.560Z,22.94498
2022-08-29T13:32:07.126Z,22.91849
2022-08-29T13:37:14.124Z,22.62901
2022-08-29T13:42:21.010Z,22.91655
2022-08-29T13:47:21.967Z,22.98246
2022-08-29T13:52:22.916Z,23.32622
2022-08-29T13:57:26.668Z,23.27227
2022-08-29T14:02:27.769Z,23.24739
2022-08-29T14:07:28.779Z,22.94789
2022-08-29T14:12:33.897Z,22.82641
2022-08-29T14:17:35.239Z,22.85161
2022-08-29T14:22:36.202Z,23.62379
2022-08-29T14:27:37.172Z,23.32784
2022-08-29T14:32:38.103Z,24.04154
2022-08-29T14:37:39.188Z,23.9724
2022-08-29T14:42:40.087Z,24.12167
2022-08-29T14:47:41.035Z,24.58013
2022-08-29T14:52:41.959Z,25.03246
2022-08-29T14:57:43.044Z,24.85088
2022-08-29T15:02:44.119Z,24.64152
2022-08-29T15:07:45.056Z,24.56559
2022-08-29T15:12:46.019Z,24.2635
2022-08-29T15:17:46.957Z,24.48159
2022-08-29T15:22:47.983Z,24.3278
2022-08-29T15:27:48.942Z,24.57528
2022-08-29T15:32:49.831Z,24.65476
2022-08-29T15:37:50.790Z,24.51293
2022-08-29T15:42:51.708Z,24.63118
2022-08-29T15:47:53.973Z,24.7126
2022-08-29T15:52:55.359Z,24.39306
2022-08-29T15:57:57.407Z,24.15462
2022-08-29T16:02:58.768Z,23.99792
2022-08-29T16:07:59.774Z,23.85576
2022-08-29T16:13:00.724Z,23.78889
2022-08-29T16:18:01.643Z,23.75205
2022-08-29T16:23:02.579Z,23.75367
2022-08-29T16:28:03.541Z,23.74559
2022-08-29T16:33:07.204Z,23.57759
2022-08-29T16:38:08.904Z,23.40506
2022-08-29T16:43:09.935Z,23.30555
2022-08-29T16:48:15.485Z,23.22219
2022-08-29T16:53:18.046Z,22.99151
2022-08-29T16:58:18.964Z,22.90815
2022-08-29T17:03:20.435Z,22.87035
2022-08-29T17:08:21.412Z,22.78926
2022-08-29T17:13:22.416Z,22.6555
2022-08-29T17:18:23.393Z,22.45357
2022-08-29T17:23:24.326Z,22.30205
2022-08-29T17:28:25.416Z,22.20512
2022-08-29T17:33:26.337Z,22.08558
2022-08-29T17:38:27.266Z,21.96152
2022-08-29T17:43:28.180Z,21.76056
2022-08-29T17:48:29.150Z,21.61195
2022-08-29T17:53:30.079Z,21.44782
2022-08-29T17:58:30.967Z,21.32247
2022-08-29T18:03:31.925Z,21.21327
2022-08-29T18:08:32.853Z,21.0724
2022-08-29T18:13:33.772Z,20.90666
2022-08-29T18:18:34.805Z,20.79843
2022-08-29T18:23:35.811Z,20.6398
2022-08-29T18:28:36.745Z,20.45694
2022-08-29T18:33:57.193Z,20.32157
2022-08-29T18:39:01.354Z,20.18685
2022-08-29T18:44:02.330Z,20.05762
2022-08-29T18:49:03.251Z,19.93518
2022-08-29T18:54:04.200Z,19.8347
2022-08-29T18:59:05.148Z,19.76685
2022-08-29T19:04:06.075Z,19.66541
2022-08-29T19:09:07.010Z,19.55266
2022-08-29T19:14:07.931Z,19.44281
2022-08-29T19:19:13.390Z,19.353
2022-08-29T19:24:14.740Z,19.27804
2022-08-29T19:29:15.707Z,19.1556
2022-08-29T19:34:16.596Z,19.03348
2022-08-29T19:39:17.500Z,18.95368
2022-08-29T19:44:18.409Z,18.87485
2022-08-29T19:49:19.377Z,18.82284
2022-08-29T19:54:20.324Z,18.7243
2022-08-29T19:59:21.629Z,18.64321
2022-08-29T20:04:22.735Z,18.58893
2022-08-29T20:09:23.772Z,18.49977
2022-08-29T20:14:26.209Z,18.40123
2022-08-29T20:19:27.159Z,18.33113
2022-08-29T20:24:28.210Z,18.26134
2022-08-29T20:29:29.574Z,18.17379
2022-08-29T20:34:32.263Z,18.07816
2022-08-29T20:39:33.335Z,17.97414
2022-08-29T20:44:34.452Z,17.92309
2022-08-29T20:49:35.585Z,17.89983
2022-08-29T20:54:36.520Z,17.85299
2022-08-29T20:59:37.426Z,17.79063
2022-08-29T21:04:38.361Z,17.7173
2022-08-29T21:09:39.389Z,17.68661
2022-08-29T21:14:40.311Z,17.64913
2022-08-29T21:19:41.264Z,17.63168
2022-08-29T21:24:42.203Z,17.56287
2022-08-29T21:29:43.208Z,17.52572
2022-08-29T21:34:44.174Z,17.50149
2022-08-29T21:39:45.103Z,17.46692
2022-08-29T21:44:46.094Z,17.412
2022-08-29T21:49:47.144Z,17.35159
2022-08-29T21:54:48.293Z,17.33091
2022-08-29T21:59:49.466Z,17.31637
2022-08-29T22:04:50.412Z,17.33511
2022-08-29T22:09:51.421Z,17.2453
2022-08-29T22:14:52.336Z,17.20298
2022-08-29T22:19:53.280Z,17.1361
2022-08-29T22:24:54.177Z,17.10735
2022-08-29T22:29:55.419Z,17.06794
2022-08-29T22:34:56.393Z,17.02432
2022-08-29T22:39:57.851Z,16.97651
2022-08-29T22:45:03.727Z,16.92773
2022-08-29T22:50:05.151Z,16.86764
2022-08-29T22:55:06.063Z,16.81336
2022-08-29T23:00:06.984Z,16.81627
2022-08-29T23:05:09.951Z,16.80109
2022-08-29T23:10:11.122Z,16.7439
2022-08-29T23:15:12.048Z,16.68608
2022-08-29T23:20:12.998Z,16.72355
2022-08-29T23:25:13.977Z,16.68091
2022-08-29T23:30:14.882Z,16.66281
2022-08-29T23:35:15.874Z,16.60402
2022-08-29T23:40:16.880Z,16.56428
2022-08-29T23:45:17.831Z,16.56848
2022-08-29T23:50:18.751Z,16.5281
2022-08-29T23:55:19.731Z,16.4483
